sensor_id;sensor_type;location;lat;lon;timestamp;temperature;humidity
3298;DHT22;1661;53.572;10.174;2023-09-18T00:00:30;20.90;76.20
3298;DHT22;1661;53.572;10.174;2023-09-18T00:02:59;20.90;76.30
3298;DHT22;1661;53.572;10.174;2023-09-18T00:05:28;20.90;76.40
3298;DHT22;1661;53.572;10.174;2023-09-18T00:07:55;20.80;76.80
3298;DHT22;1661;53.572;10.174;2023-09-18T00:10:21;20.80;76.70
3298;DHT22;1661;53.572;10.174;2023-09-18T00:12:48;20.80;76.50
3298;DHT22;1661;53.572;10.174;2023-09-18T00:15:15;20.80;76.60
3298;DHT22;1661;53.572;10.174;2023-09-18T00:17:42;20.70;76.90
3298;DHT22;1661;53.572;10.174;2023-09-18T00:20:11;20.70;76.60
3298;DHT22;1661;53.572;10.174;2023-09-18T00:22:39;20.70;76.60
3298;DHT22;1661;53.572;10.174;2023-09-18T00:25:06;20.70;76.70
3298;DHT22;1661;53.572;10.174;2023-09-18T00:27:33;20.70;76.90
3298;DHT22;1661;53.572;10.174;2023-09-18T00:30:01;20.70;76.70
3298;DHT22;1661;53.572;10.174;2023-09-18T00:32:28;20.60;76.80
3298;DHT22;1661;53.572;10.174;2023-09-18T00:34:55;20.60;76.70
3298;DHT22;1661;53.572;10.174;2023-09-18T00:37:23;20.60;76.90
3298;DHT22;1661;53.572;10.174;2023-09-18T00:39:50;20.60;76.80
3298;DHT22;1661;53.572;10.174;2023-09-18T00:42:17;20.60;77.10
3298;DHT22;1661;53.572;10.174;2023-09-18T00:44:48;20.50;77.10
3298;DHT22;1661;53.572;10.174;2023-09-18T00:47:15;20.50;77.20
3298;DHT22;1661;53.572;10.174;2023-09-18T00:49:45;20.50;77.30
3298;DHT22;1661;53.572;10.174;2023-09-18T00:52:12;20.40;77.50
3298;DHT22;1661;53.572;10.174;2023-09-18T00:54:42;20.40;77.30
3298;DHT22;1661;53.572;10.174;2023-09-18T00:57:09;20.40;77.40
3298;DHT22;1661;53.572;10.174;2023-09-18T00:59:36;20.40;77.30
3298;DHT22;1661;53.572;10.174;2023-09-18T01:02:04;20.40;77.50
3298;DHT22;1661;53.572;10.174;2023-09-18T01:04:30;20.40;77.40
3298;DHT22;1661;53.572;10.174;2023-09-18T01:06:59;20.30;77.30
3298;DHT22;1661;53.572;10.174;2023-09-18T01:09:29;20.30;77.20
3298;DHT22;1661;53.572;10.174;2023-09-18T01:12:04;20.30;77.10
3298;DHT22;1661;53.572;10.174;2023-09-18T01:14:37;20.30;77.20
3298;DHT22;1661;53.572;10.174;2023-09-18T01:17:09;20.30;77.50
3298;DHT22;1661;53.572;10.174;2023-09-18T01:19:41;20.20;77.30
3298;DHT22;1661;53.572;10.174;2023-09-18T01:22:10;20.20;77.50
3298;DHT22;1661;53.572;10.174;2023-09-18T01:24:39;20.20;77.50
3298;DHT22;1661;53.572;10.174;2023-09-18T01:27:08;20.20;77.40
3298;DHT22;1661;53.572;10.174;2023-09-18T01:29:36;20.20;77.90
3298;DHT22;1661;53.572;10.174;2023-09-18T01:32:03;20.10;77.90
3298;DHT22;1661;53.572;10.174;2023-09-18T01:34:33;20.10;77.90
3298;DHT22;1661;53.572;10.174;2023-09-18T01:37:02;20.10;78.00
3298;DHT22;1661;53.572;10.174;2023-09-18T01:39:31;20.10;78.20
3298;DHT22;1661;53.572;10.174;2023-09-18T01:42:01;20.00;78.50
3298;DHT22;1661;53.572;10.174;2023-09-18T01:44:28;20.00;78.30
3298;DHT22;1661;53.572;10.174;2023-09-18T01:46:57;20.00;78.50
3298;DHT22;1661;53.572;10.174;2023-09-18T01:49:28;19.90;78.70
3298;DHT22;1661;53.572;10.174;2023-09-18T01:51:55;19.90;78.90
3298;DHT22;1661;53.572;10.174;2023-09-18T01:54:22;19.90;78.70
3298;DHT22;1661;53.572;10.174;2023-09-18T01:56:49;19.90;78.80
3298;DHT22;1661;53.572;10.174;2023-09-18T01:59:17;19.90;78.80
3298;DHT22;1661;53.572;10.174;2023-09-18T02:01:44;19.90;79.00
3298;DHT22;1661;53.572;10.174;2023-09-18T02:04:11;19.80;79.10
3298;DHT22;1661;53.572;10.174;2023-09-18T02:06:37;19.80;79.30
3298;DHT22;1661;53.572;10.174;2023-09-18T02:09:05;19.70;79.50
3298;DHT22;1661;53.572;10.174;2023-09-18T02:11:34;19.70;79.50
3298;DHT22;1661;53.572;10.174;2023-09-18T02:14:01;19.70;79.50
3298;DHT22;1661;53.572;10.174;2023-09-18T02:16:32;19.70;79.60
3298;DHT22;1661;53.572;10.174;2023-09-18T02:18:58;19.70;79.70
3298;DHT22;1661;53.572;10.174;2023-09-18T02:21:25;19.60;79.90
3298;DHT22;1661;53.572;10.174;2023-09-18T02:23:53;19.60;79.90
3298;DHT22;1661;53.572;10.174;2023-09-18T02:26:21;19.60;80.20
3298;DHT22;1661;53.572;10.174;2023-09-18T02:28:49;19.50;80.30
3298;DHT22;1661;53.572;10.174;2023-09-18T02:31:15;19.50;80.40
3298;DHT22;1661;53.572;10.174;2023-09-18T02:33:44;19.40;80.70
3298;DHT22;1661;53.572;10.174;2023-09-18T02:36:11;19.40;80.80
3298;DHT22;1661;53.572;10.174;2023-09-18T02:38:37;19.40;80.90
3298;DHT22;1661;53.572;10.174;2023-09-18T02:41:04;19.30;81.00
3298;DHT22;1661;53.572;10.174;2023-09-18T02:43:31;19.30;81.10
3298;DHT22;1661;53.572;10.174;2023-09-18T02:45:58;19.30;81.10
3298;DHT22;1661;53.572;10.174;2023-09-18T02:48:25;19.30;80.90
3298;DHT22;1661;53.572;10.174;2023-09-18T02:50:53;19.30;80.90
3298;DHT22;1661;53.572;10.174;2023-09-18T02:53:21;19.30;81.00
3298;DHT22;1661;53.572;10.174;2023-09-18T02:55:51;19.30;80.90
3298;DHT22;1661;53.572;10.174;2023-09-18T02:58:18;19.30;80.90
3298;DHT22;1661;53.572;10.174;2023-09-18T03:00:47;19.30;81.00
3298;DHT22;1661;53.572;10.174;2023-09-18T03:03:14;19.30;80.80
3298;DHT22;1661;53.572;10.174;2023-09-18T03:05:43;19.30;80.70
3298;DHT22;1661;53.572;10.174;2023-09-18T03:08:13;19.30;80.70
3298;DHT22;1661;53.572;10.174;2023-09-18T03:10:41;19.30;80.70
3298;DHT22;1661;53.572;10.174;2023-09-18T03:13:09;19.30;80.60
3298;DHT22;1661;53.572;10.174;2023-09-18T03:15:36;19.30;80.30
3298;DHT22;1661;53.572;10.174;2023-09-18T03:18:05;19.30;80.30
3298;DHT22;1661;53.572;10.174;2023-09-18T03:20:32;19.30;80.10
3298;DHT22;1661;53.572;10.174;2023-09-18T03:23:01;19.30;80.00
3298;DHT22;1661;53.572;10.174;2023-09-18T03:25:29;19.30;79.90
3298;DHT22;1661;53.572;10.174;2023-09-18T03:27:57;19.30;79.70
3298;DHT22;1661;53.572;10.174;2023-09-18T03:30:25;19.30;79.70
3298;DHT22;1661;53.572;10.174;2023-09-18T03:32:52;19.30;80.20
3298;DHT22;1661;53.572;10.174;2023-09-18T03:35:20;19.30;80.00
3298;DHT22;1661;53.572;10.174;2023-09-18T03:37:48;19.30;80.20
3298;DHT22;1661;53.572;10.174;2023-09-18T03:40:15;19.20;80.20
3298;DHT22;1661;53.572;10.174;2023-09-18T03:42:44;19.20;80.50
3298;DHT22;1661;53.572;10.174;2023-09-18T03:45:11;19.20;80.80
3298;DHT22;1661;53.572;10.174;2023-09-18T03:47:39;19.20;80.60
3298;DHT22;1661;53.572;10.174;2023-09-18T03:50:07;19.10;80.70
3298;DHT22;1661;53.572;10.174;2023-09-18T03:52:34;19.10;81.00
3298;DHT22;1661;53.572;10.174;2023-09-18T03:55:02;19.10;80.90
3298;DHT22;1661;53.572;10.174;2023-09-18T03:57:29;19.10;81.10
3298;DHT22;1661;53.572;10.174;2023-09-18T03:59:57;19.10;81.10
3298;DHT22;1661;53.572;10.174;2023-09-18T04:02:25;19.10;80.70
3298;DHT22;1661;53.572;10.174;2023-09-18T04:04:53;19.10;80.70
3298;DHT22;1661;53.572;10.174;2023-09-18T04:07:20;19.10;81.00
3298;DHT22;1661;53.572;10.174;2023-09-18T04:09:47;19.10;81.10
3298;DHT22;1661;53.572;10.174;2023-09-18T04:12:14;19.00;81.20
3298;DHT22;1661;53.572;10.174;2023-09-18T04:14:41;19.00;80.90
3298;DHT22;1661;53.572;10.174;2023-09-18T04:17:09;19.00;81.00
3298;DHT22;1661;53.572;10.174;2023-09-18T04:19:36;19.00;81.00
3298;DHT22;1661;53.572;10.174;2023-09-18T04:22:03;19.00;80.90
3298;DHT22;1661;53.572;10.174;2023-09-18T04:24:29;19.00;80.90
3298;DHT22;1661;53.572;10.174;2023-09-18T04:26:56;19.00;80.80
3298;DHT22;1661;53.572;10.174;2023-09-18T04:29:22;19.00;80.70
3298;DHT22;1661;53.572;10.174;2023-09-18T04:31:49;19.00;80.80
3298;DHT22;1661;53.572;10.174;2023-09-18T04:34:18;19.00;80.30
3298;DHT22;1661;53.572;10.174;2023-09-18T04:36:45;19.00;80.50
3298;DHT22;1661;53.572;10.174;2023-09-18T04:39:12;19.10;80.30
3298;DHT22;1661;53.572;10.174;2023-09-18T04:41:39;19.00;80.10
3298;DHT22;1661;53.572;10.174;2023-09-18T04:44:06;19.00;79.90
3298;DHT22;1661;53.572;10.174;2023-09-18T04:46:33;19.00;80.10
3298;DHT22;1661;53.572;10.174;2023-09-18T04:49:01;19.00;80.10
3298;DHT22;1661;53.572;10.174;2023-09-18T04:51:31;19.00;80.70
3298;DHT22;1661;53.572;10.174;2023-09-18T04:53:58;19.00;81.10
3298;DHT22;1661;53.572;10.174;2023-09-18T04:56:25;18.90;81.50
3298;DHT22;1661;53.572;10.174;2023-09-18T04:58:52;18.90;81.60
3298;DHT22;1661;53.572;10.174;2023-09-18T05:01:19;18.90;81.50
3298;DHT22;1661;53.572;10.174;2023-09-18T05:03:46;18.90;81.50
3298;DHT22;1661;53.572;10.174;2023-09-18T05:06:15;18.90;81.70
3298;DHT22;1661;53.572;10.174;2023-09-18T05:08:43;18.90;81.70
3298;DHT22;1661;53.572;10.174;2023-09-18T05:11:10;18.90;81.80
3298;DHT22;1661;53.572;10.174;2023-09-18T05:13:36;18.80;82.00
3298;DHT22;1661;53.572;10.174;2023-09-18T05:16:04;18.80;82.30
3298;DHT22;1661;53.572;10.174;2023-09-18T05:18:31;18.70;82.50
3298;DHT22;1661;53.572;10.174;2023-09-18T05:20:58;18.70;82.70
3298;DHT22;1661;53.572;10.174;2023-09-18T05:23:25;18.60;82.90
3298;DHT22;1661;53.572;10.174;2023-09-18T05:25:53;18.60;83.10
3298;DHT22;1661;53.572;10.174;2023-09-18T05:28:20;18.60;83.30
3298;DHT22;1661;53.572;10.174;2023-09-18T05:30:46;18.60;83.50
3298;DHT22;1661;53.572;10.174;2023-09-18T05:33:13;18.60;83.70
3298;DHT22;1661;53.572;10.174;2023-09-18T05:35:41;18.60;83.70
3298;DHT22;1661;53.572;10.174;2023-09-18T05:38:09;18.50;83.90
3298;DHT22;1661;53.572;10.174;2023-09-18T05:40:36;18.50;83.90
3298;DHT22;1661;53.572;10.174;2023-09-18T05:43:05;18.50;83.90
3298;DHT22;1661;53.572;10.174;2023-09-18T05:45:33;18.60;83.90
3298;DHT22;1661;53.572;10.174;2023-09-18T05:47:59;18.60;83.80
3298;DHT22;1661;53.572;10.174;2023-09-18T05:50:30;18.60;83.70
3298;DHT22;1661;53.572;10.174;2023-09-18T05:52:57;18.70;83.60
3298;DHT22;1661;53.572;10.174;2023-09-18T05:55:26;18.70;83.60
3298;DHT22;1661;53.572;10.174;2023-09-18T05:57:53;18.70;83.50
3298;DHT22;1661;53.572;10.174;2023-09-18T06:00:21;18.70;83.50
3298;DHT22;1661;53.572;10.174;2023-09-18T06:02:48;18.80;83.50
3298;DHT22;1661;53.572;10.174;2023-09-18T06:05:17;18.80;83.40
3298;DHT22;1661;53.572;10.174;2023-09-18T06:07:47;18.80;83.30
3298;DHT22;1661;53.572;10.174;2023-09-18T06:10:14;18.90;83.30
3298;DHT22;1661;53.572;10.174;2023-09-18T06:12:42;18.90;83.20
3298;DHT22;1661;53.572;10.174;2023-09-18T06:15:09;19.00;83.10
3298;DHT22;1661;53.572;10.174;2023-09-18T06:17:38;19.10;83.00
3298;DHT22;1661;53.572;10.174;2023-09-18T06:20:06;19.20;82.50
3298;DHT22;1661;53.572;10.174;2023-09-18T06:22:35;19.30;82.20
3298;DHT22;1661;53.572;10.174;2023-09-18T06:25:03;19.50;82.00
3298;DHT22;1661;53.572;10.174;2023-09-18T06:27:30;19.60;81.60
3298;DHT22;1661;53.572;10.174;2023-09-18T06:29:58;19.70;80.90
3298;DHT22;1661;53.572;10.174;2023-09-18T06:32:25;19.90;80.60
3298;DHT22;1661;53.572;10.174;2023-09-18T06:34:54;20.00;80.30
3298;DHT22;1661;53.572;10.174;2023-09-18T06:37:23;20.10;80.00
3298;DHT22;1661;53.572;10.174;2023-09-18T06:39:49;20.20;79.70
3298;DHT22;1661;53.572;10.174;2023-09-18T06:42:16;20.30;79.20
3298;DHT22;1661;53.572;10.174;2023-09-18T06:44:43;20.40;78.90
3298;DHT22;1661;53.572;10.174;2023-09-18T06:47:10;20.40;78.80
3298;DHT22;1661;53.572;10.174;2023-09-18T06:49:36;20.50;78.50
3298;DHT22;1661;53.572;10.174;2023-09-18T06:52:05;20.50;78.40
3298;DHT22;1661;53.572;10.174;2023-09-18T06:54:32;20.60;78.30
3298;DHT22;1661;53.572;10.174;2023-09-18T06:56:58;20.60;78.20
3298;DHT22;1661;53.572;10.174;2023-09-18T06:59:25;20.60;78.10
3298;DHT22;1661;53.572;10.174;2023-09-18T07:01:52;20.70;78.20
3298;DHT22;1661;53.572;10.174;2023-09-18T07:04:19;20.70;78.10
3298;DHT22;1661;53.572;10.174;2023-09-18T07:06:45;20.70;78.30
3298;DHT22;1661;53.572;10.174;2023-09-18T07:09:14;20.70;78.40
3298;DHT22;1661;53.572;10.174;2023-09-18T07:11:41;20.70;78.30
3298;DHT22;1661;53.572;10.174;2023-09-18T07:14:07;20.70;78.30
3298;DHT22;1661;53.572;10.174;2023-09-18T07:16:34;20.80;78.30
3298;DHT22;1661;53.572;10.174;2023-09-18T07:19:01;20.80;78.30
3298;DHT22;1661;53.572;10.174;2023-09-18T07:21:30;20.90;78.30
3298;DHT22;1661;53.572;10.174;2023-09-18T07:23:56;20.90;78.20
3298;DHT22;1661;53.572;10.174;2023-09-18T07:26:24;21.00;78.00
3298;DHT22;1661;53.572;10.174;2023-09-18T07:28:51;21.10;77.90
3298;DHT22;1661;53.572;10.174;2023-09-18T07:31:18;21.20;77.50
3298;DHT22;1661;53.572;10.174;2023-09-18T07:33:45;21.30;77.50
3298;DHT22;1661;53.572;10.174;2023-09-18T07:36:12;21.40;77.40
3298;DHT22;1661;53.572;10.174;2023-09-18T07:38:40;21.50;76.90
3298;DHT22;1661;53.572;10.174;2023-09-18T07:41:08;21.70;76.70
3298;DHT22;1661;53.572;10.174;2023-09-18T07:43:36;21.80;75.90
3298;DHT22;1661;53.572;10.174;2023-09-18T07:46:04;21.90;75.90
3298;DHT22;1661;53.572;10.174;2023-09-18T07:48:31;22.00;75.60
3298;DHT22;1661;53.572;10.174;2023-09-18T07:50:58;22.10;75.50
3298;DHT22;1661;53.572;10.174;2023-09-18T07:53:25;22.20;75.30
3298;DHT22;1661;53.572;10.174;2023-09-18T07:55:56;22.40;75.10
3298;DHT22;1661;53.572;10.174;2023-09-18T07:58:24;22.50;74.90
3298;DHT22;1661;53.572;10.174;2023-09-18T08:00:55;22.60;74.60
3298;DHT22;1661;53.572;10.174;2023-09-18T08:03:23;22.70;74.30
3298;DHT22;1661;53.572;10.174;2023-09-18T08:05:50;22.90;74.00
3298;DHT22;1661;53.572;10.174;2023-09-18T08:08:20;23.00;73.50
3298;DHT22;1661;53.572;10.174;2023-09-18T08:10:47;23.10;73.70
3298;DHT22;1661;53.572;10.174;2023-09-18T08:13:14;23.20;73.00
3298;DHT22;1661;53.572;10.174;2023-09-18T08:15:41;23.30;73.20
3298;DHT22;1661;53.572;10.174;2023-09-18T08:18:10;23.40;72.50
3298;DHT22;1661;53.572;10.174;2023-09-18T08:20:40;23.50;72.60
3298;DHT22;1661;53.572;10.174;2023-09-18T08:23:08;23.50;72.40
3298;DHT22;1661;53.572;10.174;2023-09-18T08:25:35;23.60;72.20
3298;DHT22;1661;53.572;10.174;2023-09-18T08:28:02;23.60;71.50
3298;DHT22;1661;53.572;10.174;2023-09-18T08:30:30;23.60;71.50
3298;DHT22;1661;53.572;10.174;2023-09-18T08:32:57;23.60;71.30
3298;DHT22;1661;53.572;10.174;2023-09-18T08:35:25;23.60;70.90
3298;DHT22;1661;53.572;10.174;2023-09-18T08:37:55;23.60;70.70
3298;DHT22;1661;53.572;10.174;2023-09-18T08:40:23;23.60;70.80
3298;DHT22;1661;53.572;10.174;2023-09-18T08:42:52;23.60;71.00
3298;DHT22;1661;53.572;10.174;2023-09-18T08:45:25;23.70;70.20
3298;DHT22;1661;53.572;10.174;2023-09-18T08:47:53;23.70;70.30
3298;DHT22;1661;53.572;10.174;2023-09-18T08:50:21;23.70;70.20
3298;DHT22;1661;53.572;10.174;2023-09-18T08:52:50;23.60;70.20
3298;DHT22;1661;53.572;10.174;2023-09-18T08:55:18;23.50;70.50
3298;DHT22;1661;53.572;10.174;2023-09-18T08:57:46;23.40;70.90
3298;DHT22;1661;53.572;10.174;2023-09-18T09:00:13;23.40;70.90
3298;DHT22;1661;53.572;10.174;2023-09-18T09:02:43;23.40;70.90
3298;DHT22;1661;53.572;10.174;2023-09-18T09:05:10;23.20;71.50
3298;DHT22;1661;53.572;10.174;2023-09-18T09:07:37;23.30;71.80
3298;DHT22;1661;53.572;10.174;2023-09-18T09:10:06;23.20;72.00
3298;DHT22;1661;53.572;10.174;2023-09-18T09:12:49;23.30;72.20
3298;DHT22;1661;53.572;10.174;2023-09-18T09:15:17;23.30;71.60
3298;DHT22;1661;53.572;10.174;2023-09-18T09:17:44;23.30;72.00
3298;DHT22;1661;53.572;10.174;2023-09-18T09:20:13;23.40;72.00
3298;DHT22;1661;53.572;10.174;2023-09-18T09:22:40;23.40;72.10
3298;DHT22;1661;53.572;10.174;2023-09-18T09:25:24;23.40;72.10
3298;DHT22;1661;53.572;10.174;2023-09-18T09:27:51;23.40;72.40
3298;DHT22;1661;53.572;10.174;2023-09-18T09:30:20;23.40;72.50
3298;DHT22;1661;53.572;10.174;2023-09-18T09:32:48;23.40;72.30
3298;DHT22;1661;53.572;10.174;2023-09-18T09:35:21;23.50;72.30
3298;DHT22;1661;53.572;10.174;2023-09-18T09:37:49;23.70;72.30
3298;DHT22;1661;53.572;10.174;2023-09-18T09:40:19;23.70;71.70
3298;DHT22;1661;53.572;10.174;2023-09-18T09:42:47;23.80;71.50
3298;DHT22;1661;53.572;10.174;2023-09-18T09:45:17;23.80;71.60
3298;DHT22;1661;53.572;10.174;2023-09-18T09:47:44;23.80;71.80
3298;DHT22;1661;53.572;10.174;2023-09-18T09:50:13;23.90;71.40
3298;DHT22;1661;53.572;10.174;2023-09-18T09:52:43;24.00;71.30
3298;DHT22;1661;53.572;10.174;2023-09-18T09:55:22;24.00;71.40
3298;DHT22;1661;53.572;10.174;2023-09-18T09:57:52;24.00;71.10
3298;DHT22;1661;53.572;10.174;2023-09-18T10:00:19;23.90;71.30
3298;DHT22;1661;53.572;10.174;2023-09-18T10:03:00;23.90;71.60
3298;DHT22;1661;53.572;10.174;2023-09-18T10:05:30;23.90;71.60
3298;DHT22;1661;53.572;10.174;2023-09-18T10:07:59;23.80;71.70
3298;DHT22;1661;53.572;10.174;2023-09-18T10:10:30;23.80;72.40
3298;DHT22;1661;53.572;10.174;2023-09-18T10:13:07;23.80;72.30
3298;DHT22;1661;53.572;10.174;2023-09-18T10:15:37;23.80;72.40
3298;DHT22;1661;53.572;10.174;2023-09-18T10:18:07;23.90;72.20
3298;DHT22;1661;53.572;10.174;2023-09-18T10:20:40;23.90;72.10
3298;DHT22;1661;53.572;10.174;2023-09-18T10:23:15;24.00;72.20
3298;DHT22;1661;53.572;10.174;2023-09-18T10:25:52;24.00;72.20
3298;DHT22;1661;53.572;10.174;2023-09-18T10:28:24;24.00;72.00
3298;DHT22;1661;53.572;10.174;2023-09-18T10:30:56;24.10;72.40
3298;DHT22;1661;53.572;10.174;2023-09-18T10:33:23;24.10;72.20
3298;DHT22;1661;53.572;10.174;2023-09-18T10:35:53;24.10;72.40
3298;DHT22;1661;53.572;10.174;2023-09-18T10:38:23;24.20;72.40
3298;DHT22;1661;53.572;10.174;2023-09-18T10:40:52;24.30;72.30
3298;DHT22;1661;53.572;10.174;2023-09-18T10:43:21;24.40;71.80
3298;DHT22;1661;53.572;10.174;2023-09-18T10:45:49;24.50;71.90
3298;DHT22;1661;53.572;10.174;2023-09-18T10:48:18;24.50;71.40
3298;DHT22;1661;53.572;10.174;2023-09-18T10:50:45;24.70;71.40
3298;DHT22;1661;53.572;10.174;2023-09-18T10:53:12;24.80;70.90
3298;DHT22;1661;53.572;10.174;2023-09-18T10:55:41;24.70;70.60
3298;DHT22;1661;53.572;10.174;2023-09-18T10:58:08;24.80;70.90
3298;DHT22;1661;53.572;10.174;2023-09-18T11:00:37;24.80;70.80
3298;DHT22;1661;53.572;10.174;2023-09-18T11:03:13;24.90;71.00
3298;DHT22;1661;53.572;10.174;2023-09-18T11:05:40;24.90;71.00
3298;DHT22;1661;53.572;10.174;2023-09-18T11:08:26;25.00;70.90
3298;DHT22;1661;53.572;10.174;2023-09-18T11:10:58;25.00;70.40
3298;DHT22;1661;53.572;10.174;2023-09-18T11:13:30;25.10;70.60
3298;DHT22;1661;53.572;10.174;2023-09-18T11:16:03;25.20;70.50
3298;DHT22;1661;53.572;10.174;2023-09-18T11:18:39;25.20;70.20
3298;DHT22;1661;53.572;10.174;2023-09-18T11:21:09;25.30;70.20
3298;DHT22;1661;53.572;10.174;2023-09-18T11:23:38;25.40;70.50
3298;DHT22;1661;53.572;10.174;2023-09-18T11:26:08;25.40;70.30
3298;DHT22;1661;53.572;10.174;2023-09-18T11:28:36;25.50;70.70
3298;DHT22;1661;53.572;10.174;2023-09-18T11:31:05;25.60;69.70
3298;DHT22;1661;53.572;10.174;2023-09-18T11:33:34;25.90;69.70
3298;DHT22;1661;53.572;10.174;2023-09-18T11:36:06;26.10;69.20
3298;DHT22;1661;53.572;10.174;2023-09-18T11:38:52;26.30;68.60
3298;DHT22;1661;53.572;10.174;2023-09-18T11:41:22;26.50;68.00
3298;DHT22;1661;53.572;10.174;2023-09-18T11:43:50;26.50;67.50
3298;DHT22;1661;53.572;10.174;2023-09-18T11:46:21;26.50;67.60
3298;DHT22;1661;53.572;10.174;2023-09-18T11:48:51;26.50;67.90
3298;DHT22;1661;53.572;10.174;2023-09-18T11:51:23;26.50;67.90
3298;DHT22;1661;53.572;10.174;2023-09-18T11:53:53;26.50;68.40
3298;DHT22;1661;53.572;10.174;2023-09-18T11:56:21;26.40;68.20
3298;DHT22;1661;53.572;10.174;2023-09-18T11:58:48;26.40;68.70
3298;DHT22;1661;53.572;10.174;2023-09-18T12:01:15;26.40;68.10
3298;DHT22;1661;53.572;10.174;2023-09-18T12:03:44;26.40;68.70
3298;DHT22;1661;53.572;10.174;2023-09-18T12:06:12;26.50;67.90
3298;DHT22;1661;53.572;10.174;2023-09-18T12:08:39;26.40;66.70
3298;DHT22;1661;53.572;10.174;2023-09-18T12:11:07;26.40;67.20
3298;DHT22;1661;53.572;10.174;2023-09-18T12:13:34;26.20;67.50
3298;DHT22;1661;53.572;10.174;2023-09-18T12:16:02;26.10;67.70
3298;DHT22;1661;53.572;10.174;2023-09-18T12:18:31;26.00;67.90
3298;DHT22;1661;53.572;10.174;2023-09-18T12:21:02;25.90;68.10
3298;DHT22;1661;53.572;10.174;2023-09-18T12:23:37;25.70;68.40
3298;DHT22;1661;53.572;10.174;2023-09-18T12:26:05;25.70;68.50
3298;DHT22;1661;53.572;10.174;2023-09-18T12:28:33;25.70;68.50
3298;DHT22;1661;53.572;10.174;2023-09-18T12:31:01;25.70;68.90
3298;DHT22;1661;53.572;10.174;2023-09-18T12:33:33;25.70;68.10
3298;DHT22;1661;53.572;10.174;2023-09-18T12:36:02;25.70;68.10
3298;DHT22;1661;53.572;10.174;2023-09-18T12:38:30;25.70;68.40
3298;DHT22;1661;53.572;10.174;2023-09-18T12:40:58;25.80;68.50
3298;DHT22;1661;53.572;10.174;2023-09-18T12:43:34;25.90;68.80
3298;DHT22;1661;53.572;10.174;2023-09-18T12:46:01;26.10;68.10
3298;DHT22;1661;53.572;10.174;2023-09-18T12:48:29;26.10;67.20
3298;DHT22;1661;53.572;10.174;2023-09-18T12:51:03;26.10;67.20
3298;DHT22;1661;53.572;10.174;2023-09-18T12:53:30;26.10;67.00
3298;DHT22;1661;53.572;10.174;2023-09-18T12:56:08;26.00;67.00
3298;DHT22;1661;53.572;10.174;2023-09-18T12:58:36;25.90;67.20
3298;DHT22;1661;53.572;10.174;2023-09-18T13:01:06;25.90;67.50
3298;DHT22;1661;53.572;10.174;2023-09-18T13:03:35;25.90;67.60
3298;DHT22;1661;53.572;10.174;2023-09-18T13:06:11;25.90;67.40
3298;DHT22;1661;53.572;10.174;2023-09-18T13:08:39;26.00;67.40
3298;DHT22;1661;53.572;10.174;2023-09-18T13:11:05;26.00;66.80
3298;DHT22;1661;53.572;10.174;2023-09-18T13:13:33;26.00;67.00
3298;DHT22;1661;53.572;10.174;2023-09-18T13:16:03;25.90;67.30
3298;DHT22;1661;53.572;10.174;2023-09-18T13:18:31;26.00;67.60
3298;DHT22;1661;53.572;10.174;2023-09-18T13:20:58;26.20;67.20
3298;DHT22;1661;53.572;10.174;2023-09-18T13:23:30;26.30;66.50
3298;DHT22;1661;53.572;10.174;2023-09-18T13:26:01;26.30;65.80
3298;DHT22;1661;53.572;10.174;2023-09-18T13:28:29;26.30;65.60
3298;DHT22;1661;53.572;10.174;2023-09-18T13:30:58;26.30;66.30
3298;DHT22;1661;53.572;10.174;2023-09-18T13:33:26;26.30;66.40
3298;DHT22;1661;53.572;10.174;2023-09-18T13:35:53;26.30;66.80
3298;DHT22;1661;53.572;10.174;2023-09-18T13:38:21;26.20;66.20
3298;DHT22;1661;53.572;10.174;2023-09-18T13:40:49;26.00;66.40
3298;DHT22;1661;53.572;10.174;2023-09-18T13:43:16;25.90;66.90
3298;DHT22;1661;53.572;10.174;2023-09-18T13:45:44;25.80;67.30
3298;DHT22;1661;53.572;10.174;2023-09-18T13:48:11;25.70;66.90
3298;DHT22;1661;53.572;10.174;2023-09-18T13:50:38;25.60;66.80
3298;DHT22;1661;53.572;10.174;2023-09-18T13:53:05;25.50;67.30
3298;DHT22;1661;53.572;10.174;2023-09-18T13:55:32;25.50;67.40
3298;DHT22;1661;53.572;10.174;2023-09-18T13:58:01;25.50;67.50
3298;DHT22;1661;53.572;10.174;2023-09-18T14:00:28;25.50;67.50
3298;DHT22;1661;53.572;10.174;2023-09-18T14:02:55;25.50;67.60
3298;DHT22;1661;53.572;10.174;2023-09-18T14:05:22;25.60;68.10
3298;DHT22;1661;53.572;10.174;2023-09-18T14:07:49;25.60;67.50
3298;DHT22;1661;53.572;10.174;2023-09-18T14:10:17;25.60;67.10
3298;DHT22;1661;53.572;10.174;2023-09-18T14:12:46;25.40;67.50
3298;DHT22;1661;53.572;10.174;2023-09-18T14:15:15;25.40;67.90
3298;DHT22;1661;53.572;10.174;2023-09-18T14:17:41;25.30;68.10
3298;DHT22;1661;53.572;10.174;2023-09-18T14:20:08;25.20;68.50
3298;DHT22;1661;53.572;10.174;2023-09-18T14:22:36;25.30;68.60
3298;DHT22;1661;53.572;10.174;2023-09-18T14:25:04;25.20;68.70
3298;DHT22;1661;53.572;10.174;2023-09-18T14:27:31;25.30;68.60
3298;DHT22;1661;53.572;10.174;2023-09-18T14:29:58;25.20;68.30
3298;DHT22;1661;53.572;10.174;2023-09-18T14:32:28;25.20;68.30
3298;DHT22;1661;53.572;10.174;2023-09-18T14:34:55;25.20;68.70
3298;DHT22;1661;53.572;10.174;2023-09-18T14:37:22;25.20;68.90
3298;DHT22;1661;53.572;10.174;2023-09-18T14:39:48;25.20;69.40
3298;DHT22;1661;53.572;10.174;2023-09-18T14:42:15;25.30;68.80
3298;DHT22;1661;53.572;10.174;2023-09-18T14:44:42;25.40;68.80
3298;DHT22;1661;53.572;10.174;2023-09-18T14:47:10;25.70;68.00
3298;DHT22;1661;53.572;10.174;2023-09-18T14:49:38;25.80;67.50
3298;DHT22;1661;53.572;10.174;2023-09-18T14:52:05;25.90;66.80
3298;DHT22;1661;53.572;10.174;2023-09-18T14:54:33;25.90;66.90
3298;DHT22;1661;53.572;10.174;2023-09-18T14:57:00;25.90;66.60
3298;DHT22;1661;53.572;10.174;2023-09-18T14:59:27;25.90;66.30
3298;DHT22;1661;53.572;10.174;2023-09-18T15:01:53;25.90;66.10
3298;DHT22;1661;53.572;10.174;2023-09-18T15:04:20;25.90;66.50
3298;DHT22;1661;53.572;10.174;2023-09-18T15:06:49;25.90;66.60
3298;DHT22;1661;53.572;10.174;2023-09-18T15:09:16;25.80;66.60
3298;DHT22;1661;53.572;10.174;2023-09-18T15:11:43;25.80;66.40
3298;DHT22;1661;53.572;10.174;2023-09-18T15:14:10;25.70;66.60
3298;DHT22;1661;53.572;10.174;2023-09-18T15:16:37;25.50;66.30
3298;DHT22;1661;53.572;10.174;2023-09-18T15:19:04;25.30;67.10
3298;DHT22;1661;53.572;10.174;2023-09-18T15:21:32;25.40;67.40
3298;DHT22;1661;53.572;10.174;2023-09-18T15:24:00;25.40;67.10
3298;DHT22;1661;53.572;10.174;2023-09-18T15:26:26;25.50;67.50
3298;DHT22;1661;53.572;10.174;2023-09-18T15:28:53;25.50;67.30
3298;DHT22;1661;53.572;10.174;2023-09-18T15:31:20;25.60;67.20
3298;DHT22;1661;53.572;10.174;2023-09-18T15:33:47;25.80;66.60
3298;DHT22;1661;53.572;10.174;2023-09-18T15:36:14;25.90;66.70
3298;DHT22;1661;53.572;10.174;2023-09-18T15:38:41;26.00;66.30
3298;DHT22;1661;53.572;10.174;2023-09-18T15:41:09;26.00;66.20
3298;DHT22;1661;53.572;10.174;2023-09-18T15:43:36;26.00;66.20
3298;DHT22;1661;53.572;10.174;2023-09-18T15:46:03;25.90;65.90
3298;DHT22;1661;53.572;10.174;2023-09-18T15:48:29;25.90;65.60
3298;DHT22;1661;53.572;10.174;2023-09-18T15:50:56;25.90;66.20